sensor_id;sensor_type;location;lat;lon;timestamp;P1;durP1;ratioP1;P2;durP2;ratioP2
20982;SDS011;10650;51.528;6.748;2022-08-04T00:01:06;6.10;;;2.92;;
20982;SDS011;10650;51.528;6.748;2022-08-04T00:03:38;6.45;;;2.90;;
20982;SDS011;10650;51.528;6.748;2022-08-04T00:06:11;8.10;;;2.80;;
20982;SDS011;10650;51.528;6.748;2022-08-04T00:08:43;8.15;;;2.75;;
20982;SDS011;10650;51.528;6.748;2022-08-04T00:11:19;7.60;;;3.17;;
20982;SDS011;10650;51.528;6.748;2022-08-04T00:13:51;6.15;;;2.78;;
20982;SDS011;10650;51.528;6.748;2022-08-04T00:16:29;9.07;;;3.17;;
20982;SDS011;10650;51.528;6.748;2022-08-04T00:19:03;5.68;;;2.53;;
20982;SDS011;10650;51.528;6.748;2022-08-04T00:21:36;3.42;;;2.30;;
20982;SDS011;10650;51.528;6.748;2022-08-04T00:24:08;6.15;;;2.60;;
20982;SDS011;10650;51.528;6.748;2022-08-04T00:26:39;6.75;;;2.90;;
20982;SDS011;10650;51.528;6.748;2022-08-04T00:29:09;6.28;;;2.70;;
20982;SDS011;10650;51.528;6.748;2022-08-04T00:31:37;7.93;;;2.78;;
20982;SDS011;10650;51.528;6.748;2022-08-04T00:34:23;8.90;;;2.95;;
20982;SDS011;10650;51.528;6.748;2022-08-04T00:36:52;6.72;;;2.35;;
20982;SDS011;10650;51.528;6.748;2022-08-04T00:39:20;7.13;;;2.75;;
20982;SDS011;10650;51.528;6.748;2022-08-04T00:41:52;8.32;;;2.80;;
20982;SDS011;10650;51.528;6.748;2022-08-04T00:44:40;6.78;;;2.80;;
20982;SDS011;10650;51.528;6.748;2022-08-04T00:47:22;8.05;;;2.72;;
20982;SDS011;10650;51.528;6.748;2022-08-04T00:50:07;5.97;;;2.95;;
20982;SDS011;10650;51.528;6.748;2022-08-04T00:52:40;11.00;;;3.15;;
20982;SDS011;10650;51.528;6.748;2022-08-04T00:55:26;7.20;;;3.13;;
20982;SDS011;10650;51.528;6.748;2022-08-04T01:00:59;7.03;;;3.15;;
20982;SDS011;10650;51.528;6.748;2022-08-04T01:03:32;4.80;;;2.80;;
20982;SDS011;10650;51.528;6.748;2022-08-04T01:06:15;8.80;;;3.15;;
20982;SDS011;10650;51.528;6.748;2022-08-04T01:08:57;7.88;;;2.95;;
20982;SDS011;10650;51.528;6.748;2022-08-04T01:11:36;8.27;;;2.95;;
20982;SDS011;10650;51.528;6.748;2022-08-04T01:14:28;8.48;;;3.10;;
20982;SDS011;10650;51.528;6.748;2022-08-04T01:17:20;5.15;;;3.20;;
20982;SDS011;10650;51.528;6.748;2022-08-04T01:19:52;9.18;;;3.38;;
20982;SDS011;10650;51.528;6.748;2022-08-04T01:25:37;8.57;;;3.00;;
20982;SDS011;10650;51.528;6.748;2022-08-04T01:28:28;5.80;;;2.60;;
20982;SDS011;10650;51.528;6.748;2022-08-04T01:31:12;9.10;;;3.58;;
20982;SDS011;10650;51.528;6.748;2022-08-04T01:33:46;8.80;;;3.42;;
20982;SDS011;10650;51.528;6.748;2022-08-04T01:36:30;9.32;;;3.10;;
20982;SDS011;10650;51.528;6.748;2022-08-04T01:39:01;7.78;;;3.53;;
20982;SDS011;10650;51.528;6.748;2022-08-04T01:41:51;8.18;;;3.47;;
20982;SDS011;10650;51.528;6.748;2022-08-04T01:44:24;10.40;;;3.17;;
20982;SDS011;10650;51.528;6.748;2022-08-04T01:46:56;11.63;;;3.35;;
20982;SDS011;10650;51.528;6.748;2022-08-04T01:49:27;11.40;;;3.80;;
20982;SDS011;10650;51.528;6.748;2022-08-04T01:52:08;12.45;;;3.75;;
20982;SDS011;10650;51.528;6.748;2022-08-04T01:54:37;11.13;;;3.38;;
20982;SDS011;10650;51.528;6.748;2022-08-04T01:57:08;11.05;;;3.70;;
20982;SDS011;10650;51.528;6.748;2022-08-04T01:59:57;8.13;;;3.20;;
20982;SDS011;10650;51.528;6.748;2022-08-04T02:02:27;9.20;;;3.35;;
20982;SDS011;10650;51.528;6.748;2022-08-04T02:04:55;10.57;;;3.15;;
20982;SDS011;10650;51.528;6.748;2022-08-04T02:07:29;8.80;;;3.38;;
20982;SDS011;10650;51.528;6.748;2022-08-04T02:10:07;10.50;;;3.08;;
20982;SDS011;10650;51.528;6.748;2022-08-04T02:12:51;10.10;;;3.00;;
20982;SDS011;10650;51.528;6.748;2022-08-04T02:15:25;11.80;;;3.55;;
20982;SDS011;10650;51.528;6.748;2022-08-04T02:17:59;5.68;;;2.80;;
20982;SDS011;10650;51.528;6.748;2022-08-04T02:20:31;7.68;;;2.90;;
20982;SDS011;10650;51.528;6.748;2022-08-04T02:23:02;9.23;;;2.90;;
20982;SDS011;10650;51.528;6.748;2022-08-04T02:25:33;6.25;;;2.97;;
20982;SDS011;10650;51.528;6.748;2022-08-04T02:28:09;7.68;;;2.60;;
20982;SDS011;10650;51.528;6.748;2022-08-04T02:30:43;7.95;;;2.90;;
20982;SDS011;10650;51.528;6.748;2022-08-04T02:33:18;6.03;;;2.50;;
20982;SDS011;10650;51.528;6.748;2022-08-04T02:35:51;8.13;;;3.22;;
20982;SDS011;10650;51.528;6.748;2022-08-04T02:38:30;14.43;;;2.92;;
20982;SDS011;10650;51.528;6.748;2022-08-04T02:41:09;10.50;;;3.28;;
20982;SDS011;10650;51.528;6.748;2022-08-04T02:43:37;11.32;;;5.60;;
20982;SDS011;10650;51.528;6.748;2022-08-04T02:46:18;10.95;;;3.55;;
20982;SDS011;10650;51.528;6.748;2022-08-04T02:48:49;9.80;;;3.60;;
20982;SDS011;10650;51.528;6.748;2022-08-04T02:51:20;6.97;;;2.92;;
20982;SDS011;10650;51.528;6.748;2022-08-04T02:53:51;8.55;;;3.42;;
20982;SDS011;10650;51.528;6.748;2022-08-04T02:56:21;11.27;;;3.65;;
20982;SDS011;10650;51.528;6.748;2022-08-04T02:58:51;8.52;;;3.33;;
20982;SDS011;10650;51.528;6.748;2022-08-04T03:01:22;10.15;;;3.10;;
20982;SDS011;10650;51.528;6.748;2022-08-04T03:04:00;9.80;;;3.50;;
20982;SDS011;10650;51.528;6.748;2022-08-04T03:06:58;7.63;;;3.58;;
20982;SDS011;10650;51.528;6.748;2022-08-04T03:09:50;12.23;;;3.40;;
20982;SDS011;10650;51.528;6.748;2022-08-04T03:18:36;8.98;;;3.13;;
20982;SDS011;10650;51.528;6.748;2022-08-04T03:24:26;11.27;;;3.40;;
20982;SDS011;10650;51.528;6.748;2022-08-04T03:27:10;10.73;;;3.22;;
20982;SDS011;10650;51.528;6.748;2022-08-04T03:32:36;10.48;;;3.90;;
20982;SDS011;10650;51.528;6.748;2022-08-04T03:42:19;11.32;;;3.47;;
20982;SDS011;10650;51.528;6.748;2022-08-04T03:45:15;9.18;;;3.80;;
20982;SDS011;10650;51.528;6.748;2022-08-04T03:48:07;7.03;;;2.92;;
20982;SDS011;10650;51.528;6.748;2022-08-04T03:50:50;7.53;;;3.05;;
20982;SDS011;10650;51.528;6.748;2022-08-04T03:54:08;8.02;;;3.72;;
20982;SDS011;10650;51.528;6.748;2022-08-04T03:57:05;7.35;;;3.00;;
20982;SDS011;10650;51.528;6.748;2022-08-04T04:00:02;7.32;;;3.20;;
20982;SDS011;10650;51.528;6.748;2022-08-04T04:12:06;7.95;;;3.58;;
20982;SDS011;10650;51.528;6.748;2022-08-04T04:14:58;8.35;;;3.97;;
20982;SDS011;10650;51.528;6.748;2022-08-04T04:17:45;9.43;;;3.60;;
20982;SDS011;10650;51.528;6.748;2022-08-04T04:20:24;9.68;;;3.70;;
20982;SDS011;10650;51.528;6.748;2022-08-04T04:23:22;6.82;;;3.85;;
20982;SDS011;10650;51.528;6.748;2022-08-04T04:26:09;11.07;;;4.70;;
20982;SDS011;10650;51.528;6.748;2022-08-04T04:28:57;12.45;;;4.85;;
20982;SDS011;10650;51.528;6.748;2022-08-04T04:31:36;7.90;;;4.18;;
20982;SDS011;10650;51.528;6.748;2022-08-04T04:34:15;9.10;;;4.10;;
20982;SDS011;10650;51.528;6.748;2022-08-04T04:36:57;8.38;;;3.80;;
20982;SDS011;10650;51.528;6.748;2022-08-04T04:39:41;10.48;;;6.18;;
20982;SDS011;10650;51.528;6.748;2022-08-04T04:42:29;12.50;;;7.43;;
20982;SDS011;10650;51.528;6.748;2022-08-04T04:48:03;14.52;;;4.38;;
20982;SDS011;10650;51.528;6.748;2022-08-04T04:53:34;8.68;;;4.28;;
20982;SDS011;10650;51.528;6.748;2022-08-04T04:56:11;12.82;;;4.82;;
20982;SDS011;10650;51.528;6.748;2022-08-04T04:58:43;9.95;;;4.10;;
20982;SDS011;10650;51.528;6.748;2022-08-04T05:01:15;15.50;;;4.80;;
20982;SDS011;10650;51.528;6.748;2022-08-04T05:04:06;11.18;;;4.53;;
20982;SDS011;10650;51.528;6.748;2022-08-04T05:06:56;14.88;;;4.47;;
20982;SDS011;10650;51.528;6.748;2022-08-04T05:09:45;13.95;;;4.50;;
20982;SDS011;10650;51.528;6.748;2022-08-04T05:15:43;30.05;;;16.95;;
20982;SDS011;10650;51.528;6.748;2022-08-04T05:18:15;18.85;;;4.78;;
20982;SDS011;10650;51.528;6.748;2022-08-04T05:20:49;18.23;;;4.90;;
20982;SDS011;10650;51.528;6.748;2022-08-04T05:23:22;14.90;;;4.50;;
20982;SDS011;10650;51.528;6.748;2022-08-04T05:25:54;17.67;;;4.47;;
20982;SDS011;10650;51.528;6.748;2022-08-04T05:28:26;13.70;;;4.38;;
20982;SDS011;10650;51.528;6.748;2022-08-04T05:30:56;19.25;;;4.88;;
20982;SDS011;10650;51.528;6.748;2022-08-04T05:33:29;16.83;;;4.95;;
20982;SDS011;10650;51.528;6.748;2022-08-04T05:36:04;13.10;;;4.65;;
20982;SDS011;10650;51.528;6.748;2022-08-04T05:38:50;16.48;;;4.40;;
20982;SDS011;10650;51.528;6.748;2022-08-04T05:41:20;12.25;;;4.68;;
20982;SDS011;10650;51.528;6.748;2022-08-04T05:43:57;13.23;;;4.47;;
20982;SDS011;10650;51.528;6.748;2022-08-04T05:46:27;13.50;;;4.07;;
20982;SDS011;10650;51.528;6.748;2022-08-04T05:48:57;22.60;;;10.30;;
20982;SDS011;10650;51.528;6.748;2022-08-04T05:51:26;16.77;;;5.40;;
20982;SDS011;10650;51.528;6.748;2022-08-04T05:53:56;18.07;;;7.60;;
20982;SDS011;10650;51.528;6.748;2022-08-04T05:56:24;14.10;;;4.70;;
20982;SDS011;10650;51.528;6.748;2022-08-04T05:58:53;12.15;;;4.30;;
20982;SDS011;10650;51.528;6.748;2022-08-04T06:01:22;10.43;;;3.95;;
20982;SDS011;10650;51.528;6.748;2022-08-04T06:03:51;13.13;;;4.20;;
20982;SDS011;10650;51.528;6.748;2022-08-04T06:06:22;10.20;;;4.53;;
20982;SDS011;10650;51.528;6.748;2022-08-04T06:08:54;11.93;;;4.70;;
20982;SDS011;10650;51.528;6.748;2022-08-04T06:11:22;10.40;;;4.97;;
20982;SDS011;10650;51.528;6.748;2022-08-04T06:13:54;10.52;;;4.28;;
20982;SDS011;10650;51.528;6.748;2022-08-04T06:16:26;8.90;;;4.05;;
20982;SDS011;10650;51.528;6.748;2022-08-04T06:19:02;18.75;;;8.43;;
20982;SDS011;10650;51.528;6.748;2022-08-04T06:21:53;11.93;;;4.28;;
20982;SDS011;10650;51.528;6.748;2022-08-04T06:24:25;11.45;;;4.60;;
20982;SDS011;10650;51.528;6.748;2022-08-04T06:26:55;14.02;;;4.68;;
20982;SDS011;10650;51.528;6.748;2022-08-04T06:29:24;11.32;;;4.35;;
20982;SDS011;10650;51.528;6.748;2022-08-04T06:31:59;13.93;;;4.50;;
20982;SDS011;10650;51.528;6.748;2022-08-04T06:34:59;10.88;;;4.57;;
20982;SDS011;10650;51.528;6.748;2022-08-04T06:37:28;11.00;;;4.40;;
20982;SDS011;10650;51.528;6.748;2022-08-04T06:40:11;10.60;;;4.65;;
20982;SDS011;10650;51.528;6.748;2022-08-04T06:42:57;6.72;;;3.90;;
20982;SDS011;10650;51.528;6.748;2022-08-04T06:45:26;9.80;;;3.65;;
20982;SDS011;10650;51.528;6.748;2022-08-04T06:47:55;6.93;;;3.80;;
20982;SDS011;10650;51.528;6.748;2022-08-04T06:50:24;6.68;;;4.00;;
20982;SDS011;10650;51.528;6.748;2022-08-04T06:53:13;7.18;;;3.85;;
20982;SDS011;10650;51.528;6.748;2022-08-04T06:55:44;5.88;;;3.60;;
20982;SDS011;10650;51.528;6.748;2022-08-04T07:00:42;6.20;;;3.65;;
20982;SDS011;10650;51.528;6.748;2022-08-04T07:03:12;6.60;;;3.42;;
20982;SDS011;10650;51.528;6.748;2022-08-04T07:05:40;6.97;;;3.78;;
20982;SDS011;10650;51.528;6.748;2022-08-04T07:08:09;6.68;;;4.10;;
20982;SDS011;10650;51.528;6.748;2022-08-04T07:10:38;8.70;;;4.30;;
20982;SDS011;10650;51.528;6.748;2022-08-04T07:13:08;8.48;;;4.40;;
20982;SDS011;10650;51.528;6.748;2022-08-04T07:15:38;8.02;;;4.20;;
20982;SDS011;10650;51.528;6.748;2022-08-04T07:18:10;7.97;;;4.38;;
20982;SDS011;10650;51.528;6.748;2022-08-04T07:20:39;10.27;;;4.10;;
20982;SDS011;10650;51.528;6.748;2022-08-04T07:23:08;7.82;;;3.95;;
20982;SDS011;10650;51.528;6.748;2022-08-04T07:25:38;9.27;;;4.10;;
20982;SDS011;10650;51.528;6.748;2022-08-04T07:28:28;6.22;;;3.90;;
20982;SDS011;10650;51.528;6.748;2022-08-04T07:30:57;7.97;;;4.00;;
20982;SDS011;10650;51.528;6.748;2022-08-04T07:33:25;6.95;;;3.50;;
20982;SDS011;10650;51.528;6.748;2022-08-04T07:35:54;6.85;;;3.60;;
20982;SDS011;10650;51.528;6.748;2022-08-04T07:41:19;5.68;;;3.60;;
20982;SDS011;10650;51.528;6.748;2022-08-04T07:44:05;5.18;;;3.47;;
20982;SDS011;10650;51.528;6.748;2022-08-04T07:46:34;7.30;;;4.13;;
20982;SDS011;10650;51.528;6.748;2022-08-04T07:49:02;10.32;;;5.10;;
20982;SDS011;10650;51.528;6.748;2022-08-04T07:51:31;13.18;;;5.00;;
20982;SDS011;10650;51.528;6.748;2022-08-04T07:54:00;14.13;;;5.10;;
20982;SDS011;10650;51.528;6.748;2022-08-04T07:56:30;13.63;;;5.10;;
20982;SDS011;10650;51.528;6.748;2022-08-04T07:58:59;12.05;;;4.75;;
20982;SDS011;10650;51.528;6.748;2022-08-04T08:01:29;10.90;;;5.35;;
20982;SDS011;10650;51.528;6.748;2022-08-04T08:03:57;13.63;;;5.15;;
20982;SDS011;10650;51.528;6.748;2022-08-04T08:06:27;11.35;;;5.30;;
20982;SDS011;10650;51.528;6.748;2022-08-04T08:09:05;14.38;;;5.75;;
20982;SDS011;10650;51.528;6.748;2022-08-04T08:11:39;13.75;;;5.93;;
20982;SDS011;10650;51.528;6.748;2022-08-04T08:14:27;13.88;;;5.93;;
20982;SDS011;10650;51.528;6.748;2022-08-04T08:16:58;13.15;;;6.20;;
20982;SDS011;10650;51.528;6.748;2022-08-04T08:19:28;14.52;;;6.25;;
20982;SDS011;10650;51.528;6.748;2022-08-04T08:21:56;12.32;;;6.18;;
20982;SDS011;10650;51.528;6.748;2022-08-04T08:24:27;11.95;;;6.00;;
20982;SDS011;10650;51.528;6.748;2022-08-04T08:26:56;15.63;;;6.10;;
20982;SDS011;10650;51.528;6.748;2022-08-04T08:29:25;14.15;;;6.25;;
20982;SDS011;10650;51.528;6.748;2022-08-04T08:31:55;8.88;;;6.18;;
20982;SDS011;10650;51.528;6.748;2022-08-04T08:34:33;9.68;;;4.50;;
20982;SDS011;10650;51.528;6.748;2022-08-04T08:37:04;10.63;;;4.47;;
20982;SDS011;10650;51.528;6.748;2022-08-04T08:39:40;9.77;;;4.57;;
20982;SDS011;10650;51.528;6.748;2022-08-04T08:42:18;7.90;;;4.10;;
20982;SDS011;10650;51.528;6.748;2022-08-04T08:48:15;6.72;;;3.92;;
20982;SDS011;10650;51.528;6.748;2022-08-04T08:54:11;6.60;;;3.67;;
20982;SDS011;10650;51.528;6.748;2022-08-04T08:56:57;7.85;;;3.75;;
20982;SDS011;10650;51.528;6.748;2022-08-04T08:59:45;8.32;;;3.75;;
20982;SDS011;10650;51.528;6.748;2022-08-04T09:05:39;7.03;;;3.22;;
20982;SDS011;10650;51.528;6.748;2022-08-04T09:08:29;8.93;;;3.65;;
20982;SDS011;10650;51.528;6.748;2022-08-04T09:11:15;8.55;;;3.60;;
20982;SDS011;10650;51.528;6.748;2022-08-04T09:13:49;5.35;;;3.63;;
20982;SDS011;10650;51.528;6.748;2022-08-04T09:16:23;7.55;;;3.63;;
20982;SDS011;10650;51.528;6.748;2022-08-04T09:19:01;6.28;;;3.35;;
20982;SDS011;10650;51.528;6.748;2022-08-04T09:21:44;5.25;;;3.22;;
20982;SDS011;10650;51.528;6.748;2022-08-04T09:24:18;6.97;;;3.40;;
20982;SDS011;10650;51.528;6.748;2022-08-04T09:27:04;7.55;;;3.20;;
20982;SDS011;10650;51.528;6.748;2022-08-04T09:29:42;11.13;;;8.57;;
20982;SDS011;10650;51.528;6.748;2022-08-04T09:32:16;6.70;;;4.10;;
20982;SDS011;10650;51.528;6.748;2022-08-04T09:34:54;6.43;;;3.45;;
20982;SDS011;10650;51.528;6.748;2022-08-04T09:37:37;9.52;;;3.45;;
20982;SDS011;10650;51.528;6.748;2022-08-04T09:40:14;4.32;;;3.20;;
20982;SDS011;10650;51.528;6.748;2022-08-04T09:43:13;5.63;;;3.30;;
20982;SDS011;10650;51.528;6.748;2022-08-04T09:46:20;6.55;;;3.35;;
20982;SDS011;10650;51.528;6.748;2022-08-04T09:48:52;5.63;;;3.10;;
20982;SDS011;10650;51.528;6.748;2022-08-04T09:51:31;5.47;;;3.20;;
20982;SDS011;10650;51.528;6.748;2022-08-04T09:54:26;6.15;;;2.80;;
20982;SDS011;10650;51.528;6.748;2022-08-04T09:57:00;6.35;;;3.00;;
20982;SDS011;10650;51.528;6.748;2022-08-04T09:59:40;6.38;;;3.10;;
20982;SDS011;10650;51.528;6.748;2022-08-04T10:02:13;4.55;;;2.78;;
20982;SDS011;10650;51.528;6.748;2022-08-04T10:04:45;4.90;;;3.00;;
20982;SDS011;10650;51.528;6.748;2022-08-04T10:07:18;4.80;;;2.90;;
20982;SDS011;10650;51.528;6.748;2022-08-04T10:10:31;5.20;;;2.97;;
20982;SDS011;10650;51.528;6.748;2022-08-04T10:13:04;5.97;;;2.88;;
20982;SDS011;10650;51.528;6.748;2022-08-04T10:18:39;3.85;;;2.85;;
20982;SDS011;10650;51.528;6.748;2022-08-04T10:21:17;6.07;;;2.67;;
20982;SDS011;10650;51.528;6.748;2022-08-04T10:24:03;6.60;;;2.90;;
20982;SDS011;10650;51.528;6.748;2022-08-04T10:26:41;6.97;;;3.10;;
20982;SDS011;10650;51.528;6.748;2022-08-04T10:31:56;8.00;;;3.10;;
20982;SDS011;10650;51.528;6.748;2022-08-04T10:34:30;4.30;;;2.80;;
20982;SDS011;10650;51.528;6.748;2022-08-04T10:37:08;5.20;;;2.83;;
20982;SDS011;10650;51.528;6.748;2022-08-04T10:39:46;5.13;;;3.00;;
20982;SDS011;10650;51.528;6.748;2022-08-04T10:42:35;6.65;;;3.03;;
20982;SDS011;10650;51.528;6.748;2022-08-04T10:45:09;5.70;;;2.80;;
20982;SDS011;10650;51.528;6.748;2022-08-04T10:47:54;8.02;;;3.30;;
20982;SDS011;10650;51.528;6.748;2022-08-04T10:50:26;6.18;;;3.20;;
20982;SDS011;10650;51.528;6.748;2022-08-04T10:53:16;6.74;;;3.14;;
20982;SDS011;10650;51.528;6.748;2022-08-04T10:55:48;7.70;;;2.80;;
20982;SDS011;10650;51.528;6.748;2022-08-04T10:58:35;5.28;;;3.20;;
20982;SDS011;10650;51.528;6.748;2022-08-04T11:01:14;5.85;;;3.00;;
20982;SDS011;10650;51.528;6.748;2022-08-04T11:04:09;6.40;;;3.30;;
20982;SDS011;10650;51.528;6.748;2022-08-04T11:06:56;5.15;;;2.97;;
20982;SDS011;10650;51.528;6.748;2022-08-04T11:09:25;7.50;;;3.10;;
20982;SDS011;10650;51.528;6.748;2022-08-04T11:11:55;6.22;;;2.90;;
20982;SDS011;10650;51.528;6.748;2022-08-04T11:14:34;7.45;;;4.22;;
20982;SDS011;10650;51.528;6.748;2022-08-04T11:17:06;9.02;;;3.08;;
20982;SDS011;10650;51.528;6.748;2022-08-04T11:19:41;8.70;;;3.10;;
20982;SDS011;10650;51.528;6.748;2022-08-04T11:22:21;5.10;;;2.80;;
20982;SDS011;10650;51.528;6.748;2022-08-04T11:24:53;6.65;;;2.88;;
20982;SDS011;10650;51.528;6.748;2022-08-04T11:27:28;7.05;;;3.20;;
20982;SDS011;10650;51.528;6.748;2022-08-04T11:30:03;8.88;;;2.92;;
20982;SDS011;10650;51.528;6.748;2022-08-04T11:32:35;5.65;;;3.05;;
20982;SDS011;10650;51.528;6.748;2022-08-04T11:35:11;9.45;;;2.95;;
20982;SDS011;10650;51.528;6.748;2022-08-04T11:37:44;7.45;;;3.20;;
20982;SDS011;10650;51.528;6.748;2022-08-04T11:42:50;5.82;;;2.80;;
20982;SDS011;10650;51.528;6.748;2022-08-04T11:45:24;6.07;;;2.80;;
20982;SDS011;10650;51.528;6.748;2022-08-04T11:47:57;8.23;;;3.00;;
20982;SDS011;10650;51.528;6.748;2022-08-04T11:50:33;9.63;;;3.00;;
20982;SDS011;10650;51.528;6.748;2022-08-04T11:53:06;13.57;;;2.92;;
20982;SDS011;10650;51.528;6.748;2022-08-04T11:55:38;10.52;;;3.53;;
20982;SDS011;10650;51.528;6.748;2022-08-04T11:58:26;5.55;;;2.80;;
20982;SDS011;10650;51.528;6.748;2022-08-04T12:00:57;6.60;;;3.05;;
20982;SDS011;10650;51.528;6.748;2022-08-04T12:03:33;9.15;;;3.47;;
20982;SDS011;10650;51.528;6.748;2022-08-04T12:06:12;11.80;;;4.47;;
20982;SDS011;10650;51.528;6.748;2022-08-04T12:11:45;9.00;;;5.18;;
20982;SDS011;10650;51.528;6.748;2022-08-04T12:14:25;9.90;;;4.20;;
20982;SDS011;10650;51.528;6.748;2022-08-04T12:16:58;8.90;;;4.35;;
20982;SDS011;10650;51.528;6.748;2022-08-04T12:19:31;8.15;;;4.00;;
20982;SDS011;10650;51.528;6.748;2022-08-04T12:22:24;9.13;;;4.55;;
20982;SDS011;10650;51.528;6.748;2022-08-04T12:24:58;7.28;;;4.32;;
20982;SDS011;10650;51.528;6.748;2022-08-04T12:27:30;8.73;;;3.83;;
20982;SDS011;10650;51.528;6.748;2022-08-04T12:30:02;6.95;;;3.75;;
20982;SDS011;10650;51.528;6.748;2022-08-04T12:32:53;9.18;;;5.10;;
20982;SDS011;10650;51.528;6.748;2022-08-04T12:35:26;10.60;;;5.38;;
20982;SDS011;10650;51.528;6.748;2022-08-04T12:38:02;9.77;;;4.57;;
20982;SDS011;10650;51.528;6.748;2022-08-04T12:40:35;10.15;;;4.43;;
20982;SDS011;10650;51.528;6.748;2022-08-04T12:43:07;9.07;;;3.85;;
20982;SDS011;10650;51.528;6.748;2022-08-04T12:45:40;7.57;;;3.95;;
20982;SDS011;10650;51.528;6.748;2022-08-04T12:48:14;9.55;;;3.60;;
20982;SDS011;10650;51.528;6.748;2022-08-04T12:50:47;8.93;;;3.22;;
20982;SDS011;10650;51.528;6.748;2022-08-04T12:53:18;6.28;;;3.22;;
20982;SDS011;10650;51.528;6.748;2022-08-04T12:55:57;4.93;;;2.83;;
20982;SDS011;10650;51.528;6.748;2022-08-04T12:58:28;5.97;;;3.22;;
20982;SDS011;10650;51.528;6.748;2022-08-04T13:01:09;7.53;;;3.00;;
20982;SDS011;10650;51.528;6.748;2022-08-04T13:04:00;9.33;;;3.23;;
20982;SDS011;10650;51.528;6.748;2022-08-04T13:06:33;6.50;;;3.03;;
20982;SDS011;10650;51.528;6.748;2022-08-04T13:09:05;6.43;;;3.22;;
20982;SDS011;10650;51.528;6.748;2022-08-04T13:11:43;7.43;;;3.00;;
20982;SDS011;10650;51.528;6.748;2022-08-04T13:14:17;4.05;;;3.00;;
20982;SDS011;10650;51.528;6.748;2022-08-04T13:16:55;7.00;;;2.67;;
20982;SDS011;10650;51.528;6.748;2022-08-04T13:19:24;7.43;;;2.95;;
20982;SDS011;10650;51.528;6.748;2022-08-04T13:21:54;6.15;;;3.13;;
20982;SDS011;10650;51.528;6.748;2022-08-04T13:24:32;8.40;;;3.35;;
20982;SDS011;10650;51.528;6.748;2022-08-04T13:27:23;5.57;;;3.03;;
20982;SDS011;10650;51.528;6.748;2022-08-04T13:29:54;5.55;;;2.80;;
20982;SDS011;10650;51.528;6.748;2022-08-04T13:32:34;7.88;;;3.05;;
20982;SDS011;10650;51.528;6.748;2022-08-04T13:35:02;4.43;;;2.95;;
20982;SDS011;10650;51.528;6.748;2022-08-04T13:37:35;7.65;;;3.17;;
20982;SDS011;10650;51.528;6.748;2022-08-04T13:40:07;8.85;;;2.72;;
20982;SDS011;10650;51.528;6.748;2022-08-04T13:42:38;6.43;;;3.13;;
20982;SDS011;10650;51.528;6.748;2022-08-04T13:45:12;5.00;;;2.45;;
20982;SDS011;10650;51.528;6.748;2022-08-04T13:47:45;5.65;;;2.60;;
20982;SDS011;10650;51.528;6.748;2022-08-04T13:50:17;4.43;;;2.30;;
20982;SDS011;10650;51.528;6.748;2022-08-04T13:52:50;5.63;;;2.50;;
20982;SDS011;10650;51.528;6.748;2022-08-04T13:55:25;6.75;;;2.60;;
20982;SDS011;10650;51.528;6.748;2022-08-04T13:57:57;6.20;;;3.17;;
20982;SDS011;10650;51.528;6.748;2022-08-04T14:00:37;5.13;;;2.60;;
20982;SDS011;10650;51.528;6.748;2022-08-04T14:03:12;7.32;;;2.58;;
20982;SDS011;10650;51.528;6.748;2022-08-04T14:06:09;4.95;;;2.70;;
20982;SDS011;10650;51.528;6.748;2022-08-04T14:08:49;4.35;;;3.10;;
20982;SDS011;10650;51.528;6.748;2022-08-04T14:11:34;4.72;;;2.92;;
20982;SDS011;10650;51.528;6.748;2022-08-04T14:14:25;6.10;;;2.70;;
20982;SDS011;10650;51.528;6.748;2022-08-04T14:16:59;5.53;;;3.20;;
20982;SDS011;10650;51.528;6.748;2022-08-04T14:19:36;5.00;;;2.70;;
20982;SDS011;10650;51.528;6.748;2022-08-04T14:22:28;4.45;;;2.53;;
20982;SDS011;10650;51.528;6.748;2022-08-04T14:24:59;4.85;;;2.58;;
20982;SDS011;10650;51.528;6.748;2022-08-04T14:27:39;4.63;;;2.65;;
20982;SDS011;10650;51.528;6.748;2022-08-04T14:30:19;6.68;;;2.80;;
20982;SDS011;10650;51.528;6.748;2022-08-04T14:32:52;4.57;;;2.80;;
20982;SDS011;10650;51.528;6.748;2022-08-04T14:35:23;4.38;;;3.05;;
20982;SDS011;10650;51.528;6.748;2022-08-04T14:38:04;3.53;;;2.70;;
20982;SDS011;10650;51.528;6.748;2022-08-04T14:40:34;4.60;;;2.70;;
20982;SDS011;10650;51.528;6.748;2022-08-04T14:43:06;7.88;;;3.10;;
20982;SDS011;10650;51.528;6.748;2022-08-04T14:45:35;5.03;;;2.85;;
20982;SDS011;10650;51.528;6.748;2022-08-04T14:48:20;6.25;;;2.90;;
20982;SDS011;10650;51.528;6.748;2022-08-04T14:50:49;5.55;;;2.78;;
20982;SDS011;10650;51.528;6.748;2022-08-04T14:53:18;6.40;;;2.83;;
20982;SDS011;10650;51.528;6.748;2022-08-04T14:55:48;4.00;;;2.65;;
20982;SDS011;10650;51.528;6.748;2022-08-04T14:58:18;5.20;;;2.88;;
20982;SDS011;10650;51.528;6.748;2022-08-04T15:01:04;6.53;;;2.72;;
20982;SDS011;10650;51.528;6.748;2022-08-04T15:03:38;4.03;;;2.80;;
20982;SDS011;10650;51.528;6.748;2022-08-04T15:06:18;5.10;;;3.05;;
20982;SDS011;10650;51.528;6.748;2022-08-04T15:08:49;4.53;;;2.57;;
20982;SDS011;10650;51.528;6.748;2022-08-04T15:11:18;6.63;;;2.88;;
20982;SDS011;10650;51.528;6.748;2022-08-04T15:13:50;4.50;;;2.80;;
20982;SDS011;10650;51.528;6.748;2022-08-04T15:16:18;6.07;;;3.45;;
20982;SDS011;10650;51.528;6.748;2022-08-04T15:18:46;5.10;;;2.90;;
20982;SDS011;10650;51.528;6.748;2022-08-04T15:21:15;4.53;;;2.85;;
20982;SDS011;10650;51.528;6.748;2022-08-04T15:23:43;5.05;;;2.67;;
20982;SDS011;10650;51.528;6.748;2022-08-04T15:26:12;5.93;;;3.10;;
20982;SDS011;10650;51.528;6.748;2022-08-04T15:28:44;6.95;;;3.20;;
20982;SDS011;10650;51.528;6.748;2022-08-04T15:31:17;7.80;;;3.40;;
20982;SDS011;10650;51.528;6.748;2022-08-04T15:34:07;7.90;;;3.53;;
20982;SDS011;10650;51.528;6.748;2022-08-04T15:36:37;6.35;;;2.97;;
20982;SDS011;10650;51.528;6.748;2022-08-04T15:39:25;7.68;;;4.20;;
20982;SDS011;10650;51.528;6.748;2022-08-04T15:42:07;4.80;;;3.17;;
20982;SDS011;10650;51.528;6.748;2022-08-04T15:47:44;7.38;;;3.40;;
20982;SDS011;10650;51.528;6.748;2022-08-04T15:53:31;8.18;;;3.65;;
20982;SDS011;10650;51.528;6.748;2022-08-04T15:56:42;6.18;;;4.13;;
20982;SDS011;10650;51.528;6.748;2022-08-04T16:02:40;7.80;;;3.70;;
20982;SDS011;10650;51.528;6.748;2022-08-04T16:05:29;9.02;;;3.72;;
20982;SDS011;10650;51.528;6.748;2022-08-04T16:08:08;9.85;;;3.90;;
20982;SDS011;10650;51.528;6.748;2022-08-04T16:10:48;7.82;;;3.78;;
20982;SDS011;10650;51.528;6.748;2022-08-04T16:13:17;8.95;;;4.25;;
20982;SDS011;10650;51.528;6.748;2022-08-04T16:15:47;13.95;;;7.55;;
20982;SDS011;10650;51.528;6.748;2022-08-04T16:18:21;24.50;;;12.52;;
20982;SDS011;10650;51.528;6.748;2022-08-04T16:21:17;8.30;;;5.00;;
20982;SDS011;10650;51.528;6.748;2022-08-04T16:23:54;9.02;;;3.97;;
20982;SDS011;10650;51.528;6.748;2022-08-04T16:26:45;8.98;;;3.88;;
20982;SDS011;10650;51.528;6.748;2022-08-04T16:29:25;7.80;;;4.10;;
20982;SDS011;10650;51.528;6.748;2022-08-04T16:32:07;9.70;;;3.67;;
20982;SDS011;10650;51.528;6.748;2022-08-04T16:34:37;9.95;;;5.40;;
20982;SDS011;10650;51.528;6.748;2022-08-04T16:37:21;6.93;;;4.00;;
20982;SDS011;10650;51.528;6.748;2022-08-04T16:43:03;6.75;;;4.32;;
20982;SDS011;10650;51.528;6.748;2022-08-04T16:45:43;7.63;;;4.30;;
20982;SDS011;10650;51.528;6.748;2022-08-04T16:48:13;10.55;;;5.47;;
20982;SDS011;10650;51.528;6.748;2022-08-04T16:50:46;8.20;;;4.20;;
20982;SDS011;10650;51.528;6.748;2022-08-04T16:53:17;9.00;;;4.85;;
20982;SDS011;10650;51.528;6.748;2022-08-04T16:56:06;8.27;;;4.40;;
20982;SDS011;10650;51.528;6.748;2022-08-04T16:58:36;9.68;;;4.30;;
20982;SDS011;10650;51.528;6.748;2022-08-04T17:01:19;8.88;;;4.20;;
20982;SDS011;10650;51.528;6.748;2022-08-04T17:03:59;8.65;;;4.25;;